Time;durP1;ratioP1;P1;durP2;ratioP2;P2;SDS_P1;SDS_P2;PMS_P1;PMS_P2;Temp;Humidity;BMP_temperature;BMP_pressure;BME280_temperature;BME280_humidity;BME280_pressure;Samples;Min_cycle;Max_cycle;Signal;HPM_P1;HPM_P2
2021/06/25 00:01:41;;;;;;;5.50;3.50;;;19.30;99.90;;;;;;5070148;28;20020;-61
2021/06/25 00:04:07;;;;;;;6.70;3.97;;;19.30;99.90;;;;;;5069796;28;20016;-61
2021/06/25 00:06:32;;;;;;;5.78;4.10;;;19.30;99.90;;;;;;5089039;28;20028;-61
2021/06/25 00:08:58;;;;;;;4.18;3.78;;;19.20;99.90;;;;;;5087902;28;20080;-61
2021/06/25 00:11:24;;;;;;;6.28;4.00;;;19.20;99.90;;;;;;5088620;28;20500;-60
2021/06/25 00:13:50;;;;;;;5.88;3.63;;;19.10;99.90;;;;;;5088170;28;20020;-61
2021/06/25 00:16:16;;;;;;;5.82;3.42;;;19.10;99.90;;;;;;5087450;28;20418;-61
2021/06/25 00:18:41;;;;;;;5.00;3.55;;;19.10;99.90;;;;;;5087191;28;20039;-73
2021/06/25 00:21:07;;;;;;;7.28;4.05;;;19.10;99.90;;;;;;5088164;28;20043;-62
2021/06/25 00:23:34;;;;;;;6.10;3.03;;;19.10;99.90;;;;;;5071064;28;20308;-61
2021/06/25 00:26:00;;;;;;;9.10;3.53;;;19.10;99.90;;;;;;5088419;28;20090;-61
2021/06/25 00:28:26;;;;;;;9.13;3.92;;;19.00;99.90;;;;;;5089431;28;20486;-61
2021/06/25 00:30:52;;;;;;;6.13;4.32;;;19.00;99.90;;;;;;5088081;28;20115;-61
2021/06/25 00:33:18;;;;;;;4.45;3.30;;;19.00;99.90;;;;;;5089351;28;20709;-61
2021/06/25 00:35:44;;;;;;;3.60;3.30;;;19.00;99.90;;;;;;5071073;28;20027;-67
2021/06/25 00:38:09;;;;;;;6.72;3.42;;;19.00;99.90;;;;;;5070906;28;20418;-61
2021/06/25 00:40:35;;;;;;;4.80;3.25;;;18.90;99.90;;;;;;5089617;28;20343;-61
2021/06/25 00:43:02;;;;;;;6.65;3.92;;;18.80;99.90;;;;;;5069953;28;20466;-60
2021/06/25 00:45:28;;;;;;;4.70;3.63;;;18.80;99.90;;;;;;5089066;28;20462;-61
2021/06/25 00:47:54;;;;;;;4.95;3.15;;;18.90;99.90;;;;;;5069868;28;20046;-61
2021/06/25 00:50:29;;;;;;;5.25;3.30;;;18.80;99.90;;;;;;5071315;28;20477;-61
2021/06/25 00:52:57;;;;;;;4.40;2.60;;;18.80;99.90;;;;;;5088766;28;20032;-61
2021/06/25 00:55:25;;;;;;;3.80;3.28;;;18.80;99.90;;;;;;5089236;28;20034;-61
2021/06/25 00:57:51;;;;;;;4.18;3.13;;;18.80;99.90;;;;;;5088149;28;20088;-62
2021/06/25 01:00:17;;;;;;;4.80;3.10;;;18.80;99.90;;;;;;5088473;28;20035;-61
2021/06/25 01:02:43;;;;;;;5.13;2.88;;;18.90;99.90;;;;;;5089482;28;20028;-61
2021/06/25 01:05:11;;;;;;;5.25;2.85;;;18.90;99.90;;;;;;5069953;28;20039;-62
2021/06/25 01:07:37;;;;;;;4.00;3.45;;;18.90;99.90;;;;;;5070353;28;20020;-62
2021/06/25 01:10:05;;;;;;;7.55;3.10;;;19.00;99.90;;;;;;5087887;28;20074;-61
2021/06/25 01:12:31;;;;;;;3.17;2.88;;;19.00;99.90;;;;;;5070412;28;20021;-61
2021/06/25 01:14:57;;;;;;;3.10;2.67;;;18.90;99.90;;;;;;5085833;28;20072;-61
2021/06/25 01:17:43;;;;;;;3.30;2.53;;;19.00;99.90;;;;;;5068567;28;20077;-64
2021/06/25 01:20:14;;;;;;;4.53;2.83;;;19.10;99.90;;;;;;5088639;28;20052;-61
2021/06/25 01:22:41;;;;;;;4.28;2.72;;;19.10;99.90;;;;;;5089386;28;20064;-62
2021/06/25 01:25:19;;;;;;;4.97;2.80;;;19.20;99.90;;;;;;5084473;28;20529;-63
2021/06/25 01:27:48;;;;;;;7.00;3.40;;;19.20;99.90;;;;;;5084827;28;20044;-63
2021/06/25 01:30:17;;;;;;;3.30;3.00;;;19.20;99.90;;;;;;5079443;28;20088;-63
2021/06/25 01:32:43;;;;;;;4.07;3.05;;;19.20;99.90;;;;;;5092629;28;20056;-62
2021/06/25 01:35:10;;;;;;;4.07;3.35;;;19.10;99.90;;;;;;5092618;28;20038;-63
2021/06/25 01:37:36;;;;;;;6.03;3.20;;;19.10;99.90;;;;;;5091815;28;20031;-62
2021/06/25 01:40:04;;;;;;;4.20;3.00;;;19.10;99.90;;;;;;5078996;28;20028;-61
2021/06/25 01:42:33;;;;;;;8.25;3.53;;;19.10;99.90;;;;;;5070822;28;20460;-61
2021/06/25 01:45:03;;;;;;;7.60;3.55;;;19.00;99.90;;;;;;5072193;28;20360;-62
2021/06/25 01:47:29;;;;;;;4.00;3.22;;;18.90;99.90;;;;;;5053437;28;20100;-62
2021/06/25 01:50:03;;;;;;;6.53;3.47;;;19.00;99.90;;;;;;5071725;28;20047;-62
2021/06/25 01:52:28;;;;;;;4.72;3.70;;;19.00;99.90;;;;;;5072980;28;20170;-61
2021/06/25 01:54:54;;;;;;;3.92;3.55;;;19.00;99.90;;;;;;5053860;28;20149;-62
2021/06/25 01:57:19;;;;;;;8.27;3.22;;;19.00;99.90;;;;;;5072636;28;20020;-65
2021/06/25 01:59:45;;;;;;;4.60;3.83;;;19.00;99.90;;;;;;5072539;28;20457;-61
2021/06/25 02:02:11;;;;;;;5.63;3.53;;;19.00;99.90;;;;;;5071915;28;20016;-60
2021/06/25 02:04:37;;;;;;;10.15;4.20;;;19.10;99.90;;;;;;5054426;28;20365;-61
2021/06/25 02:07:03;;;;;;;5.88;4.05;;;19.00;99.90;;;;;;5072416;28;20338;-61
2021/06/25 02:09:28;;;;;;;5.88;4.20;;;19.00;99.90;;;;;;5054646;28;20438;-60
2021/06/25 02:11:54;;;;;;;5.65;3.92;;;19.10;99.90;;;;;;5071629;28;20020;-62
2021/06/25 02:14:21;;;;;;;6.28;3.33;;;19.10;99.90;;;;;;5054296;28;20025;-61
2021/06/25 02:16:47;;;;;;;3.92;3.55;;;19.10;99.90;;;;;;5071648;28;20043;-60
2021/06/25 02:19:12;;;;;;;8.98;3.67;;;19.20;99.90;;;;;;5070998;28;20049;-61
2021/06/25 02:21:39;;;;;;;7.03;4.28;;;19.20;99.90;;;;;;5072134;28;20181;-61
2021/06/25 02:24:06;;;;;;;4.85;3.90;;;19.20;99.90;;;;;;5071377;28;20024;-61
2021/06/25 02:26:32;;;;;;;6.78;4.68;;;19.20;99.90;;;;;;5053943;28;20024;-62
2021/06/25 02:28:57;;;;;;;7.38;4.28;;;19.10;99.90;;;;;;5053443;28;20020;-61
2021/06/25 02:31:23;;;;;;;6.25;4.13;;;19.10;99.90;;;;;;5072845;28;20465;-62
2021/06/25 02:33:49;;;;;;;8.68;4.13;;;19.10;99.90;;;;;;5072212;28;20017;-61
2021/06/25 02:36:14;;;;;;;6.75;4.20;;;19.10;99.90;;;;;;5053611;28;20027;-62
2021/06/25 02:38:40;;;;;;;5.50;4.18;;;19.10;99.90;;;;;;5054214;28;20467;-61
2021/06/25 02:41:06;;;;;;;7.80;5.32;;;19.10;99.90;;;;;;5071118;28;20021;-61
2021/06/25 02:43:31;;;;;;;4.35;3.38;;;19.10;99.90;;;;;;5071615;28;20061;-61
2021/06/25 02:45:57;;;;;;;7.10;4.43;;;19.00;99.90;;;;;;5053078;28;20071;-61
2021/06/25 02:48:23;;;;;;;5.80;3.90;;;19.00;99.90;;;;;;5071301;28;20105;-60
2021/06/25 02:50:49;;;;;;;4.07;3.38;;;19.00;99.90;;;;;;5053602;28;20032;-60
2021/06/25 02:53:14;;;;;;;4.15;3.80;;;19.00;99.90;;;;;;5070695;28;20020;-61
2021/06/25 02:55:50;;;;;;;4.72;4.30;;;18.90;99.90;;;;;;5071732;28;20078;-61
2021/06/25 02:58:22;;;;;;;4.30;3.35;;;18.80;99.90;;;;;;5071506;28;20643;-61
2021/06/25 03:00:52;;;;;;;4.90;3.55;;;18.80;99.90;;;;;;5037748;28;20024;-61
2021/06/25 03:03:19;;;;;;;6.13;3.72;;;18.70;99.90;;;;;;5071548;28;20016;-61
2021/06/25 03:05:46;;;;;;;4.05;3.42;;;18.80;99.90;;;;;;5071651;28;20434;-61
2021/06/25 03:08:13;;;;;;;4.20;3.30;;;18.80;99.90;;;;;;5053065;28;20228;-61
2021/06/25 03:10:41;;;;;;;7.10;3.95;;;18.80;99.90;;;;;;5071488;28;20060;-61
2021/06/25 03:13:07;;;;;;;4.40;3.60;;;18.80;99.90;;;;;;5052721;28;20081;-61
2021/06/25 03:15:33;;;;;;;4.72;3.17;;;18.80;99.90;;;;;;5053385;28;20024;-60
2021/06/25 03:17:58;;;;;;;4.82;3.45;;;18.80;99.90;;;;;;5070321;28;20116;-61
2021/06/25 03:20:24;;;;;;;5.00;3.47;;;18.80;99.90;;;;;;5053071;28;20477;-61
2021/06/25 03:22:51;;;;;;;4.07;3.25;;;18.80;99.90;;;;;;5053086;28;20044;-62
2021/06/25 03:25:17;;;;;;;6.13;3.58;;;18.80;99.90;;;;;;5070150;28;20028;-61
2021/06/25 03:27:44;;;;;;;3.72;3.42;;;18.70;99.90;;;;;;5071033;28;20081;-61
2021/06/25 03:30:11;;;;;;;4.03;3.42;;;18.70;99.90;;;;;;5052314;28;20123;-61
2021/06/25 03:32:37;;;;;;;4.93;3.58;;;18.80;99.90;;;;;;5052830;28;20035;-61
2021/06/25 03:35:04;;;;;;;7.32;3.10;;;18.70;99.90;;;;;;5070030;28;20017;-61
2021/06/25 03:37:30;;;;;;;4.20;3.75;;;18.70;99.90;;;;;;5070629;28;20221;-62
2021/06/25 03:39:56;;;;;;;5.10;3.50;;;18.60;99.90;;;;;;5052147;28;20441;-62
2021/06/25 03:42:22;;;;;;;5.82;3.38;;;18.60;99.90;;;;;;5052834;28;20103;-61
2021/06/25 03:44:47;;;;;;;4.70;3.28;;;18.60;99.90;;;;;;5070807;28;20364;-61
2021/06/25 03:47:13;;;;;;;7.07;3.85;;;18.70;99.90;;;;;;5069888;28;20207;-61
2021/06/25 03:49:39;;;;;;;4.28;3.55;;;18.70;99.90;;;;;;5070621;28;20032;-60
2021/06/25 03:52:05;;;;;;;4.15;3.53;;;18.70;99.90;;;;;;5069325;28;20079;-60
2021/06/25 03:54:30;;;;;;;4.35;3.95;;;18.70;99.90;;;;;;5070223;28;20032;-60
2021/06/25 03:56:56;;;;;;;4.82;3.78;;;18.70;99.90;;;;;;5069764;28;20374;-61
2021/06/25 03:59:22;;;;;;;5.07;3.65;;;18.70;99.90;;;;;;5070526;28;20421;-60
2021/06/25 04:01:48;;;;;;;6.20;3.85;;;18.70;99.90;;;;;;5052306;28;20436;-60
2021/06/25 04:04:14;;;;;;;4.97;4.53;;;18.70;99.90;;;;;;5069887;28;20020;-60
2021/06/25 04:06:39;;;;;;;6.07;3.90;;;18.70;99.90;;;;;;5052351;28;20025;-61
2021/06/25 04:09:05;;;;;;;4.72;3.65;;;18.70;99.90;;;;;;5069472;28;20465;-61
2021/06/25 04:11:31;;;;;;;4.57;4.00;;;18.70;99.90;;;;;;5070060;28;20056;-61
2021/06/25 04:13:57;;;;;;;5.32;3.80;;;18.70;99.90;;;;;;5069760;28;20016;-61
2021/06/25 04:16:23;;;;;;;5.43;4.22;;;18.70;99.90;;;;;;5070071;28;20114;-61
2021/06/25 04:18:49;;;;;;;6.10;4.35;;;18.80;99.90;;;;;;5069522;28;20457;-60
2021/06/25 04:21:15;;;;;;;6.25;4.50;;;18.60;99.90;;;;;;5069750;28;20024;-62
2021/06/25 04:23:40;;;;;;;13.60;5.03;;;18.60;99.90;;;;;;5052033;28;20497;-60
2021/06/25 04:26:06;;;;;;;7.18;4.18;;;18.60;99.90;;;;;;5069269;28;20098;-61
2021/06/25 04:28:33;;;;;;;4.05;3.58;;;18.70;99.90;;;;;;5069983;28;20039;-61
2021/06/25 04:30:59;;;;;;;6.13;3.40;;;18.70;99.90;;;;;;5070131;28;20055;-62
2021/06/25 04:33:25;;;;;;;7.80;3.67;;;18.80;99.90;;;;;;5070583;28;20412;-61
2021/06/25 04:35:53;;;;;;;5.18;4.13;;;18.80;99.90;;;;;;5069899;28;20117;-61
2021/06/25 04:38:18;;;;;;;5.93;3.90;;;18.80;99.90;;;;;;5069768;28;20024;-62
2021/06/25 04:40:44;;;;;;;8.80;3.78;;;18.80;99.90;;;;;;5070085;28;20104;-61
2021/06/25 04:43:12;;;;;;;8.43;4.72;;;18.80;99.90;;;;;;5069377;28;20130;-61
2021/06/25 04:45:39;;;;;;;5.07;4.57;;;18.80;99.90;;;;;;5070167;28;20072;-61
2021/06/25 04:48:06;;;;;;;7.80;4.03;;;18.80;99.90;;;;;;5069427;28;20028;-62
2021/06/25 04:50:32;;;;;;;4.55;3.83;;;18.80;99.90;;;;;;5051855;28;20033;-61
2021/06/25 04:52:58;;;;;;;4.85;3.63;;;18.90;99.90;;;;;;5069692;28;20117;-69
2021/06/25 04:55:24;;;;;;;7.60;4.03;;;18.90;99.90;;;;;;5052505;28;20025;-61
2021/06/25 04:57:52;;;;;;;5.43;3.90;;;18.90;99.90;;;;;;5052723;28;20059;-62
2021/06/25 05:00:19;;;;;;;5.13;4.20;;;19.00;99.90;;;;;;5052300;28;20039;-62
2021/06/25 05:02:44;;;;;;;5.38;3.42;;;19.00;99.90;;;;;;5070508;28;20111;-61
2021/06/25 05:05:11;;;;;;;4.90;3.80;;;19.10;99.90;;;;;;5074138;28;20103;-61
2021/06/25 05:07:36;;;;;;;4.45;3.53;;;19.20;99.90;;;;;;5055640;28;20059;-62
2021/06/25 05:10:03;;;;;;;4.50;3.78;;;19.20;99.90;;;;;;5055075;28;20059;-62
2021/06/25 05:12:28;;;;;;;5.20;3.80;;;19.20;99.90;;;;;;5074048;28;20028;-61
2021/06/25 05:14:54;;;;;;;4.80;3.47;;;19.10;99.90;;;;;;5055766;28;20082;-61
2021/06/25 05:17:20;;;;;;;4.40;3.38;;;19.20;99.90;;;;;;5072450;28;20369;-62
2021/06/25 05:19:45;;;;;;;4.97;3.90;;;19.30;99.90;;;;;;5073050;28;20097;-62
2021/06/25 05:22:11;;;;;;;6.07;3.58;;;19.30;99.90;;;;;;5072765;28;20100;-62
2021/06/25 05:24:37;;;;;;;10.05;4.45;;;19.20;99.90;;;;;;5055062;28;20465;-61
2021/06/25 05:27:03;;;;;;;10.63;4.80;;;19.20;99.90;;;;;;5072120;28;20029;-61
2021/06/25 05:29:28;;;;;;;9.60;4.68;;;19.20;99.90;;;;;;5072910;28;20047;-61
2021/06/25 05:31:54;;;;;;;4.50;4.07;;;19.30;99.90;;;;;;5073219;28;20025;-61
2021/06/25 05:34:20;;;;;;;7.97;4.57;;;19.30;99.90;;;;;;5054304;28;20242;-62
2021/06/25 05:36:45;;;;;;;6.72;4.70;;;19.40;99.90;;;;;;5073204;28;20032;-61
2021/06/25 05:39:11;;;;;;;6.82;4.80;;;19.30;99.90;;;;;;5071771;28;20028;-61
2021/06/25 05:41:37;;;;;;;6.15;5.45;;;19.30;99.90;;;;;;5072759;28;20048;-61
2021/06/25 05:44:04;;;;;;;6.85;5.10;;;19.10;99.90;;;;;;5071982;28;20020;-63
2021/06/25 05:46:29;;;;;;;5.20;4.70;;;19.10;99.90;;;;;;5072261;28;20387;-61
2021/06/25 05:48:55;;;;;;;9.20;5.20;;;19.10;99.90;;;;;;5072762;28;20051;-62
2021/06/25 05:51:21;;;;;;;6.15;5.53;;;19.30;99.90;;;;;;5071285;28;20288;-62
2021/06/25 05:53:46;;;;;;;6.90;6.20;;;19.40;99.90;;;;;;5054772;28;20040;-61
2021/06/25 05:56:12;;;;;;;9.20;6.75;;;19.50;99.90;;;;;;5071656;28;20017;-63
2021/06/25 05:58:38;;;;;;;9.02;6.55;;;19.50;99.90;;;;;;5072169;28;20028;-62
2021/06/25 06:01:03;;;;;;;9.57;5.97;;;19.50;99.90;;;;;;5036664;28;20029;-62
2021/06/25 06:03:29;;;;;;;6.80;6.18;;;19.60;99.90;;;;;;5072517;28;20411;-61
2021/06/25 06:05:55;;;;;;;10.10;7.13;;;19.70;99.90;;;;;;5072188;28;20035;-62
2021/06/25 06:08:20;;;;;;;8.60;7.35;;;19.70;99.90;;;;;;5053507;28;20402;-63
2021/06/25 06:10:46;;;;;;;9.05;7.60;;;19.80;99.90;;;;;;5054051;28;20052;-62
2021/06/25 06:13:12;;;;;;;14.25;8.13;;;19.70;99.90;;;;;;5071601;28;20024;-62
2021/06/25 06:15:37;;;;;;;11.23;8.10;;;19.80;99.90;;;;;;5072201;28;20039;-62
2021/06/25 06:18:05;;;;;;;10.23;7.95;;;19.80;99.90;;;;;;5071832;28;20024;-70
2021/06/25 06:20:32;;;;;;;12.30;8.05;;;19.80;99.90;;;;;;5053841;28;20146;-62
2021/06/25 06:31:25;;;;;;;14.00;10.27;;;20.10;99.90;;;;;;5071248;28;20081;-63
2021/06/25 06:33:56;;;;;;;11.07;9.90;;;20.20;99.90;;;;;;5053676;28;20505;-62
2021/06/25 06:36:26;;;;;;;;;;;20.20;99.90;;;;;;5071509;28;20028;-61
2021/06/25 06:38:53;;;;;;;14.48;11.38;;;20.40;99.90;;;;;;5071784;28;19912;-61
2021/06/25 06:41:19;;;;;;;16.77;10.52;;;20.30;99.90;;;;;;5070599;28;20119;-62
2021/06/25 06:43:46;;;;;;;12.20;10.68;;;20.30;99.90;;;;;;5072042;28;20020;-62
2021/06/25 06:46:13;;;;;;;13.20;10.02;;;20.40;99.90;;;;;;5070992;28;20033;-62
2021/06/25 06:48:44;;;;;;;19.70;11.57;;;20.50;99.90;;;;;;5071702;28;20025;-62
2021/06/25 06:51:11;;;;;;;11.02;9.63;;;20.40;99.90;;;;;;5071086;28;20079;-62
2021/06/25 06:53:36;;;;;;;13.77;10.18;;;20.50;99.90;;;;;;5071458;28;20464;-62
2021/06/25 06:56:02;;;;;;;14.27;10.50;;;20.60;99.90;;;;;;5086519;28;20036;-62
2021/06/25 06:58:28;;;;;;;15.20;11.23;;;20.50;99.90;;;;;;5070598;28;20036;-62
2021/06/25 07:00:55;;;;;;;13.65;10.43;;;20.60;99.90;;;;;;5071274;28;20070;-62
2021/06/25 07:03:20;;;;;;;12.27;10.25;;;20.60;99.90;;;;;;5069847;28;20028;-62
2021/06/25 07:05:46;;;;;;;12.80;9.90;;;20.60;99.90;;;;;;5071102;28;20047;-64
2021/06/25 07:08:12;;;;;;;12.07;10.60;;;20.70;99.90;;;;;;5070320;28;20194;-64
2021/06/25 07:10:37;;;;;;;15.48;10.95;;;20.70;99.90;;;;;;5070847;28;20107;-61
2021/06/25 07:13:03;;;;;;;13.32;11.07;;;20.80;99.90;;;;;;5071149;28;20206;-63
2021/06/25 07:15:29;;;;;;;16.80;11.52;;;20.80;99.90;;;;;;5085743;28;20021;-61
2021/06/25 07:17:54;;;;;;;14.27;11.75;;;21.00;99.90;;;;;;5071133;28;20024;-61
2021/06/25 07:20:20;;;;;;;13.90;9.38;;;21.00;99.90;;;;;;5051946;28;20436;-61
2021/06/25 07:22:47;;;;;;;14.77;11.13;;;21.20;99.90;;;;;;5053163;28;20199;-62
2021/06/25 07:25:13;;;;;;;13.20;11.10;;;21.10;99.90;;;;;;5069977;28;20101;-62
2021/06/25 07:27:40;;;;;;;12.23;10.93;;;21.10;99.90;;;;;;5070408;28;20056;-61
2021/06/25 07:30:08;;;;;;;23.40;11.70;;;21.20;99.90;;;;;;5070366;28;20036;-62
2021/06/25 07:32:33;;;;;;;18.63;11.88;;;21.10;99.90;;;;;;5052394;28;20029;-61
2021/06/25 07:34:59;;;;;;;13.60;11.15;;;21.10;99.90;;;;;;5070492;28;20388;-63
2021/06/25 07:37:25;;;;;;;13.77;12.38;;;21.10;99.90;;;;;;5085242;28;20069;-62
2021/06/25 07:39:51;;;;;;;18.50;13.18;;;21.20;99.90;;;;;;5070342;28;20070;-62
2021/06/25 07:42:16;;;;;;;15.57;13.23;;;21.10;99.90;;;;;;5069698;28;20021;-63
2021/06/25 07:44:42;;;;;;;14.38;12.32;;;21.20;99.90;;;;;;5070503;28;20031;-62
2021/06/25 07:47:08;;;;;;;21.73;13.23;;;21.30;99.90;;;;;;5052406;28;20028;-72
2021/06/25 07:49:34;;;;;;;18.92;13.75;;;21.30;99.90;;;;;;5052716;28;20025;-61
2021/06/25 07:52:00;;;;;;;13.75;12.35;;;21.20;99.90;;;;;;5071087;28;20128;-62
2021/06/25 07:54:27;;;;;;;14.73;12.25;;;21.30;99.90;;;;;;5069873;28;20059;-63
2021/06/25 07:56:52;;;;;;;18.02;13.32;;;21.10;99.90;;;;;;5070257;28;20096;-65
2021/06/25 07:59:18;;;;;;;24.67;13.02;;;21.10;99.90;;;;;;5051230;28;20427;-63
2021/06/25 08:01:44;;;;;;;31.33;13.77;;;21.10;99.90;;;;;;5070375;28;20020;-61
2021/06/25 08:04:10;;;;;;;23.20;12.68;;;21.20;99.90;;;;;;5069729;28;20436;-73
2021/06/25 08:06:36;;;;;;;14.98;13.48;;;21.30;99.90;;;;;;5069649;28;20151;-61
2021/06/25 08:09:04;;;;;;;21.20;13.43;;;21.40;99.90;;;;;;5070099;28;20143;-62
2021/06/25 08:11:33;;;;;;;17.75;12.68;;;21.40;99.90;;;;;;5051535;28;20060;-61
2021/06/25 08:13:59;;;;;;;14.85;12.60;;;21.50;99.90;;;;;;5052203;28;20028;-61
2021/06/25 08:16:25;;;;;;;17.02;14.70;;;21.40;99.90;;;;;;5069838;28;20411;-62
2021/06/25 08:19:00;;;;;;;17.33;14.68;;;21.10;99.90;;;;;;5069782;28;20028;-61
2021/06/25 08:21:28;;;;;;;16.17;13.27;;;21.20;99.90;;;;;;5069346;28;20114;-60
2021/06/25 08:23:55;;;;;;;18.85;13.25;;;21.00;99.90;;;;;;5069656;28;20025;-61
2021/06/25 08:26:21;;;;;;;16.08;14.35;;;21.00;99.90;;;;;;5069511;28;20357;-61
2021/06/25 08:28:47;;;;;;;15.57;13.93;;;21.00;99.90;;;;;;5051368;28;20089;-62
2021/06/25 08:31:14;;;;;;;15.48;13.85;;;20.90;99.90;;;;;;5050887;28;20317;-63
2021/06/25 08:33:40;;;;;;;16.45;13.82;;;21.10;99.90;;;;;;5068970;28;20051;-62
2021/06/25 08:36:06;;;;;;;16.48;13.73;;;21.10;99.90;;;;;;5051277;28;20461;-61
2021/06/25 08:38:32;;;;;;;14.48;12.98;;;21.20;99.90;;;;;;5071840;28;20029;-62
2021/06/25 08:40:58;;;;;;;16.55;13.88;;;21.30;99.90;;;;;;5073798;28;20105;-61
2021/06/25 08:43:25;;;;;;;16.58;13.23;;;21.70;99.90;;;;;;5054443;28;20107;-61
2021/06/25 08:45:51;;;;;;;17.27;12.90;;;22.20;99.90;;;;;;5073453;28;20023;-61
2021/06/25 08:48:17;;;;;;;15.00;12.20;;;22.40;99.90;;;;;;5072593;28;20028;-62
2021/06/25 08:50:51;;;;;;;15.15;13.55;;;22.40;99.90;;;;;;5073234;28;20418;-61
2021/06/25 08:53:17;;;;;;;16.50;13.02;;;22.20;99.80;;;;;;5072780;28;20072;-62
2021/06/25 08:55:45;;;;;;;16.85;12.88;;;22.40;99.90;;;;;;5073225;28;20365;-61
2021/06/25 08:58:16;;;;;;;15.18;12.82;;;22.60;99.90;;;;;;5073350;28;20025;-62
2021/06/25 09:00:42;;;;;;;16.25;12.05;;;22.70;99.90;;;;;;5073392;28;20028;-61
2021/06/25 09:03:26;;;;;;;16.33;12.95;;;23.00;99.90;;;;;;5055139;28;20028;-62
2021/06/25 09:05:52;;;;;;;15.75;13.27;;;22.80;99.80;;;;;;5073110;28;20025;-62
2021/06/25 09:08:28;;;;;;;19.52;13.02;;;22.70;99.90;;;;;;5072441;28;20154;-61
2021/06/25 09:10:58;;;;;;;18.58;13.77;;;22.60;99.90;;;;;;5073037;28;20031;-62
2021/06/25 09:13:32;;;;;;;20.67;15.18;;;22.50;99.90;;;;;;5072245;28;20035;-62
2021/06/25 09:15:58;;;;;;;14.48;12.55;;;22.30;99.90;;;;;;5054762;28;20028;-62
2021/06/25 09:18:25;;;;;;;18.40;13.35;;;22.50;99.90;;;;;;5053847;28;20042;-61
2021/06/25 09:20:52;;;;;;;17.60;15.18;;;22.50;99.90;;;;;;5053722;28;20052;-61
2021/06/25 09:23:38;;;;;;;17.95;15.48;;;22.50;99.60;;;;;;5071637;28;20089;-61
2021/06/25 09:26:09;;;;;;;18.00;13.38;;;22.60;99.50;;;;;;5073255;28;20016;-62
2021/06/25 09:28:45;;;;;;;15.90;14.23;;;22.60;99.40;;;;;;5086620;28;20055;-62
2021/06/25 09:31:14;;;;;;;16.13;14.00;;;22.90;98.90;;;;;;5074045;28;20395;-60
2021/06/25 09:33:44;;;;;;;14.40;12.90;;;22.80;99.20;;;;;;5091789;28;20020;-62
2021/06/25 09:36:21;;;;;;;15.85;14.20;;;23.00;99.00;;;;;;5073547;28;20024;-63
2021/06/25 09:38:54;;;;;;;14.35;12.63;;;23.10;99.00;;;;;;5092269;28;20028;-61
2021/06/25 09:41:21;;;;;;;13.88;12.50;;;23.20;98.20;;;;;;5072912;28;20016;-62
2021/06/25 09:43:58;;;;;;;14.25;12.75;;;23.30;98.40;;;;;;5091877;28;20020;-61
2021/06/25 09:46:34;;;;;;;19.08;16.10;;;23.50;98.10;;;;;;5069742;28;20085;-61
2021/06/25 09:49:02;;;;;;;22.50;16.50;;;23.50;97.80;;;;;;5071507;28;20431;-61
2021/06/25 09:51:29;;;;;;;20.80;16.73;;;23.20;98.60;;;;;;5071663;28;20206;-61
2021/06/25 09:54:21;;;;;;;17.00;15.25;;;23.10;98.90;;;;;;5072039;28;20024;-62
2021/06/25 10:00:11;;;;;;;17.67;15.88;;;23.20;98.70;;;;;;5071334;28;20067;-63
2021/06/25 10:02:21;;;;;;;20.38;17.13;;;23.60;98.10;;;;;;5057483;28;20082;-62
2021/06/25 10:04:58;;;;;;;25.08;17.33;;;24.30;97.50;;;;;;5071789;28;20063;-62
2021/06/25 10:07:29;;;;;;;20.70;18.48;;;24.60;96.30;;;;;;5071135;28;20028;-62
2021/06/25 10:09:58;;;;;;;19.17;17.25;;;24.60;95.90;;;;;;5071597;28;20111;-61
2021/06/25 10:12:25;;;;;;;17.92;16.02;;;24.70;96.20;;;;;;5070912;28;20032;-63
2021/06/25 10:14:52;;;;;;;21.38;15.98;;;24.80;96.60;;;;;;5071355;28;20082;-61
2021/06/25 10:17:23;;;;;;;18.23;15.27;;;24.80;96.20;;;;;;5070959;28;20029;-75
2021/06/25 10:19:50;;;;;;;19.88;14.88;;;24.70;95.80;;;;;;5071574;28;20358;-61
2021/06/25 10:22:18;;;;;;;18.27;15.40;;;24.70;95.90;;;;;;5071422;28;20047;-61
2021/06/25 10:24:49;;;;;;;22.67;19.38;;;24.40;96.30;;;;;;5053111;28;20031;-61
2021/06/25 10:27:18;;;;;;;20.05;15.43;;;24.20;96.40;;;;;;5071504;28;20394;-61
2021/06/25 10:29:44;;;;;;;21.75;17.02;;;24.20;97.00;;;;;;5071149;28;20474;-62
2021/06/25 10:32:10;;;;;;;17.85;16.05;;;24.30;95.30;;;;;;5071145;28;20035;-62
2021/06/25 10:34:39;;;;;;;17.60;15.68;;;23.90;95.50;;;;;;5052402;28;20030;-62
2021/06/25 10:37:07;;;;;;;17.33;14.93;;;24.20;95.30;;;;;;5053311;28;20408;-61
2021/06/25 10:39:34;;;;;;;19.73;14.63;;;24.50;95.00;;;;;;5052637;28;20028;-61
2021/06/25 10:42:09;;;;;;;20.13;13.65;;;24.50;94.80;;;;;;5070879;28;20111;-61
2021/06/25 10:44:44;;;;;;;17.92;13.40;;;24.10;95.50;;;;;;5070676;28;20024;-61
2021/06/25 10:47:13;;;;;;;14.95;13.40;;;24.20;95.90;;;;;;5052787;28;20035;-62
2021/06/25 10:50:10;;;;;;;14.82;13.35;;;24.90;95.00;;;;;;5051821;28;20810;-62
2021/06/25 10:52:38;;;;;;;18.98;13.07;;;25.30;94.20;;;;;;5051815;28;20282;-61
2021/06/25 10:55:09;;;;;;;18.25;15.98;;;25.80;93.20;;;;;;5052212;28;20031;-61
2021/06/25 10:57:37;;;;;;;22.02;17.85;;;25.90;92.50;;;;;;5052003;28;20050;-61
2021/06/25 11:00:07;;;;;;;16.52;14.95;;;26.30;92.70;;;;;;5068811;28;20086;-61
2021/06/25 11:02:42;;;;;;;15.98;14.30;;;26.70;91.10;;;;;;5069540;28;20040;-60
2021/06/25 11:05:32;;;;;;;14.25;12.45;;;26.50;90.70;;;;;;5052129;28;20055;-61
2021/06/25 11:08:00;;;;;;;13.35;12.10;;;26.70;90.10;;;;;;5040106;28;20093;-61
2021/06/25 11:10:33;;;;;;;14.25;11.48;;;26.80;89.40;;;;;;5069780;28;20048;-61
2021/06/25 11:13:16;;;;;;;12.10;10.82;;;27.00;89.70;;;;;;5069863;28;20492;-61
2021/06/25 11:15:44;;;;;;;15.00;11.85;;;26.80;89.30;;;;;;5051301;28;20115;-61
2021/06/25 11:18:27;;;;;;;13.93;12.50;;;26.60;88.90;;;;;;5069999;28;20311;-61
2021/06/25 11:21:07;;;;;;;17.20;13.20;;;26.20;88.70;;;;;;5051029;28;20139;-61
2021/06/25 11:23:41;;;;;;;13.52;11.75;;;26.00;88.10;;;;;;5050953;28;20054;-62
2021/06/25 11:26:19;;;;;;;13.65;11.55;;;26.40;89.30;;;;;;5069577;28;20037;-61
2021/06/25 11:28:46;;;;;;;13.75;12.23;;;26.90;87.20;;;;;;5050673;28;20056;-61
2021/06/25 11:31:16;;;;;;;20.20;15.70;;;27.20;86.10;;;;;;5051379;28;20028;-61
2021/06/25 11:33:57;;;;;;;18.38;15.38;;;26.70;86.20;;;;;;5068681;28;20032;-61
2021/06/25 11:36:25;;;;;;;18.63;14.40;;;26.90;85.60;;;;;;5069200;28;20047;-64
2021/06/25 11:38:57;;;;;;;19.25;17.23;;;27.10;85.70;;;;;;5051512;28;20035;-61
2021/06/25 11:41:27;;;;;;;17.15;15.27;;;26.90;84.40;;;;;;5068825;28;20136;-74
2021/06/25 11:43:57;;;;;;;18.38;14.68;;;26.70;84.20;;;;;;5069587;28;20028;-60
2021/06/25 11:46:24;;;;;;;16.45;14.70;;;26.50;83.40;;;;;;5050540;28;20426;-68
2021/06/25 11:48:51;;;;;;;15.68;12.13;;;26.30;84.00;;;;;;5069121;28;20040;-60
2021/06/25 11:51:19;;;;;;;16.33;11.93;;;26.80;83.80;;;;;;5069437;28;20032;-60
2021/06/25 11:53:47;;;;;;;13.90;11.63;;;27.40;82.50;;;;;;5068634;28;20510;-61
2021/06/25 11:56:23;;;;;;;20.30;16.65;;;27.50;82.70;;;;;;5068012;28;20054;-63
2021/06/25 11:59:04;;;;;;;17.40;15.60;;;27.40;82.10;;;;;;5069426;28;20107;-60
2021/06/25 12:01:31;;;;;;;17.27;15.48;;;27.10;84.50;;;;;;5050791;28;20111;-61
2021/06/25 12:03:57;;;;;;;22.77;16.63;;;26.70;85.60;;;;;;5069497;28;20044;-60
2021/06/25 12:06:30;;;;;;;22.92;17.17;;;27.00;84.80;;;;;;5069023;28;20103;-59
2021/06/25 12:08:59;;;;;;;20.25;17.48;;;26.40;84.80;;;;;;5050924;28;20125;-61
2021/06/25 12:11:25;;;;;;;18.00;15.10;;;26.00;86.20;;;;;;5050302;28;20465;-69
2021/06/25 12:14:03;;;;;;;26.02;17.92;;;26.10;87.00;;;;;;5068916;28;20060;-60
2021/06/25 12:16:30;;;;;;;18.92;16.63;;;25.60;88.30;;;;;;5068523;28;20122;-61
2021/06/25 12:18:57;;;;;;;15.57;13.90;;;25.80;88.20;;;;;;5068299;28;20079;-60
2021/06/25 12:21:24;;;;;;;19.85;15.45;;;26.10;87.00;;;;;;5069814;28;20164;-59
2021/06/25 12:23:56;;;;;;;15.77;11.85;;;26.40;86.80;;;;;;5069235;28;20028;-60
2021/06/25 12:26:27;;;;;;;12.35;11.02;;;26.40;84.50;;;;;;5069141;28;20025;-59
2021/06/25 12:28:59;;;;;;;11.68;10.57;;;26.80;84.60;;;;;;5069266;28;20028;-59
2021/06/25 12:31:33;;;;;;;11.93;10.07;;;27.30;83.30;;;;;;5068199;28;20032;-60
2021/06/25 12:34:14;;;;;;;13.98;11.35;;;27.60;82.00;;;;;;5068716;28;20043;-61
2021/06/25 12:36:40;;;;;;;15.10;12.60;;;27.00;81.80;;;;;;5068313;28;20107;-59
2021/06/25 12:39:08;;;;;;;11.80;10.27;;;26.60;82.80;;;;;;5068663;28;20419;-60
2021/06/25 12:41:44;;;;;;;11.93;10.85;;;26.70;83.60;;;;;;5068226;28;20029;-60
2021/06/25 12:44:11;;;;;;;12.25;11.05;;;26.90;84.00;;;;;;5069053;28;20028;-59
2021/06/25 12:46:37;;;;;;;13.95;11.30;;;27.40;83.90;;;;;;5068423;28;20103;-59
2021/06/25 12:49:05;;;;;;;14.85;13.27;;;28.10;82.90;;;;;;5068421;28;20147;-61
2021/06/25 12:51:34;;;;;;;13.07;10.85;;;27.90;81.00;;;;;;5068147;28;20041;-59
2021/06/25 12:54:00;;;;;;;10.63;9.52;;;27.50;79.20;;;;;;5050983;28;20025;-59